sensor_id;sensor_type;location;lat;lon;timestamp;P1;durP1;ratioP1;P2;durP2;ratioP2
69087;SDS011;56190;43.562;5.036;2022-12-19T00:01:17;7.70;;;4.13;;
69087;SDS011;56190;43.562;5.036;2022-12-19T00:06:08;7.55;;;4.70;;
69087;SDS011;56190;43.562;5.036;2022-12-19T00:08:33;11.63;;;6.07;;
69087;SDS011;56190;43.562;5.036;2022-12-19T00:11:00;7.68;;;4.63;;
69087;SDS011;56190;43.562;5.036;2022-12-19T00:13:25;8.85;;;4.93;;
69087;SDS011;56190;43.562;5.036;2022-12-19T00:15:51;12.27;;;5.45;;
69087;SDS011;56190;43.562;5.036;2022-12-19T00:18:17;8.07;;;5.03;;
69087;SDS011;56190;43.562;5.036;2022-12-19T00:20:42;16.88;;;7.50;;
69087;SDS011;56190;43.562;5.036;2022-12-19T00:23:07;9.93;;;4.80;;
69087;SDS011;56190;43.562;5.036;2022-12-19T00:25:33;8.50;;;4.43;;
69087;SDS011;56190;43.562;5.036;2022-12-19T00:27:58;6.43;;;4.18;;
69087;SDS011;56190;43.562;5.036;2022-12-19T00:30:23;8.35;;;4.72;;
69087;SDS011;56190;43.562;5.036;2022-12-19T00:32:48;7.05;;;3.80;;
69087;SDS011;56190;43.562;5.036;2022-12-19T00:35:14;8.43;;;4.32;;
69087;SDS011;56190;43.562;5.036;2022-12-19T00:37:39;7.05;;;3.95;;
69087;SDS011;56190;43.562;5.036;2022-12-19T00:40:05;5.78;;;4.03;;
69087;SDS011;56190;43.562;5.036;2022-12-19T00:42:30;6.50;;;3.88;;
69087;SDS011;56190;43.562;5.036;2022-12-19T00:44:55;6.50;;;3.80;;
69087;SDS011;56190;43.562;5.036;2022-12-19T00:47:21;8.07;;;3.83;;
69087;SDS011;56190;43.562;5.036;2022-12-19T00:49:46;7.43;;;4.05;;
69087;SDS011;56190;43.562;5.036;2022-12-19T00:52:11;6.97;;;3.75;;
69087;SDS011;56190;43.562;5.036;2022-12-19T00:54:36;6.70;;;3.53;;
69087;SDS011;56190;43.562;5.036;2022-12-19T00:57:02;8.60;;;3.53;;
69087;SDS011;56190;43.562;5.036;2022-12-19T00:59:27;6.35;;;3.90;;
69087;SDS011;56190;43.562;5.036;2022-12-19T01:01:52;7.60;;;3.97;;
69087;SDS011;56190;43.562;5.036;2022-12-19T01:04:17;7.97;;;3.42;;
69087;SDS011;56190;43.562;5.036;2022-12-19T01:06:43;7.25;;;3.50;;
69087;SDS011;56190;43.562;5.036;2022-12-19T01:09:12;7.05;;;3.67;;
69087;SDS011;56190;43.562;5.036;2022-12-19T01:11:37;6.28;;;3.85;;
69087;SDS011;56190;43.562;5.036;2022-12-19T01:14:21;5.32;;;3.75;;
69087;SDS011;56190;43.562;5.036;2022-12-19T01:16:47;4.47;;;3.33;;
69087;SDS011;56190;43.562;5.036;2022-12-19T01:19:12;6.35;;;3.72;;
69087;SDS011;56190;43.562;5.036;2022-12-19T01:21:37;6.32;;;3.92;;
69087;SDS011;56190;43.562;5.036;2022-12-19T01:24:03;4.88;;;3.63;;
69087;SDS011;56190;43.562;5.036;2022-12-19T01:26:28;6.65;;;3.25;;
69087;SDS011;56190;43.562;5.036;2022-12-19T01:28:53;5.63;;;3.63;;
69087;SDS011;56190;43.562;5.036;2022-12-19T01:31:19;8.18;;;3.67;;
69087;SDS011;56190;43.562;5.036;2022-12-19T01:33:44;7.20;;;3.58;;
69087;SDS011;56190;43.562;5.036;2022-12-19T01:36:09;6.55;;;3.80;;
69087;SDS011;56190;43.562;5.036;2022-12-19T01:38:35;4.57;;;3.45;;
69087;SDS011;56190;43.562;5.036;2022-12-19T01:41:00;6.00;;;3.45;;
69087;SDS011;56190;43.562;5.036;2022-12-19T01:43:30;6.72;;;4.00;;
69087;SDS011;56190;43.562;5.036;2022-12-19T01:46:02;6.70;;;3.72;;
69087;SDS011;56190;43.562;5.036;2022-12-19T01:48:35;5.95;;;3.60;;
69087;SDS011;56190;43.562;5.036;2022-12-19T01:51:12;6.32;;;3.80;;
69087;SDS011;56190;43.562;5.036;2022-12-19T01:53:39;6.55;;;3.75;;
69087;SDS011;56190;43.562;5.036;2022-12-19T01:56:07;6.03;;;3.78;;
69087;SDS011;56190;43.562;5.036;2022-12-19T01:58:33;5.00;;;3.67;;
69087;SDS011;56190;43.562;5.036;2022-12-19T02:00:59;5.43;;;3.35;;
69087;SDS011;56190;43.562;5.036;2022-12-19T02:03:26;4.55;;;3.42;;
69087;SDS011;56190;43.562;5.036;2022-12-19T02:05:52;7.45;;;3.50;;
69087;SDS011;56190;43.562;5.036;2022-12-19T02:08:17;5.38;;;3.15;;
69087;SDS011;56190;43.562;5.036;2022-12-19T02:10:43;5.50;;;3.55;;
69087;SDS011;56190;43.562;5.036;2022-12-19T02:13:08;6.53;;;3.30;;
69087;SDS011;56190;43.562;5.036;2022-12-19T02:15:36;5.38;;;3.60;;
69087;SDS011;56190;43.562;5.036;2022-12-19T02:18:26;6.45;;;3.65;;
69087;SDS011;56190;43.562;5.036;2022-12-19T02:21:04;6.32;;;2.92;;
69087;SDS011;56190;43.562;5.036;2022-12-19T02:31:25;6.38;;;3.22;;
69087;SDS011;56190;43.562;5.036;2022-12-19T02:33:54;5.40;;;3.00;;
69087;SDS011;56190;43.562;5.036;2022-12-19T02:36:23;6.80;;;3.30;;
69087;SDS011;56190;43.562;5.036;2022-12-19T02:38:56;5.05;;;3.25;;
69087;SDS011;56190;43.562;5.036;2022-12-19T02:41:26;4.60;;;2.85;;
69087;SDS011;56190;43.562;5.036;2022-12-19T02:43:53;6.20;;;3.30;;
69087;SDS011;56190;43.562;5.036;2022-12-19T02:46:20;4.68;;;3.40;;
69087;SDS011;56190;43.562;5.036;2022-12-19T02:48:46;5.25;;;2.97;;
69087;SDS011;56190;43.562;5.036;2022-12-19T02:51:12;4.15;;;3.10;;
69087;SDS011;56190;43.562;5.036;2022-12-19T02:53:37;6.32;;;3.10;;
69087;SDS011;56190;43.562;5.036;2022-12-19T03:04:09;5.35;;;3.72;;
69087;SDS011;56190;43.562;5.036;2022-12-19T03:06:54;5.93;;;3.10;;
69087;SDS011;56190;43.562;5.036;2022-12-19T03:11:48;4.55;;;3.00;;
69087;SDS011;56190;43.562;5.036;2022-12-19T03:14:15;5.05;;;2.90;;
69087;SDS011;56190;43.562;5.036;2022-12-19T03:16:42;5.22;;;2.78;;
69087;SDS011;56190;43.562;5.036;2022-12-19T03:19:08;7.03;;;3.38;;
69087;SDS011;56190;43.562;5.036;2022-12-19T03:21:41;4.43;;;2.80;;
69087;SDS011;56190;43.562;5.036;2022-12-19T03:24:08;6.03;;;3.00;;
69087;SDS011;56190;43.562;5.036;2022-12-19T03:26:56;4.15;;;2.60;;
69087;SDS011;56190;43.562;5.036;2022-12-19T03:29:37;7.70;;;3.05;;
69087;SDS011;56190;43.562;5.036;2022-12-19T03:32:04;5.00;;;3.30;;
69087;SDS011;56190;43.562;5.036;2022-12-19T03:34:31;4.43;;;2.92;;
69087;SDS011;56190;43.562;5.036;2022-12-19T03:37:00;5.00;;;2.67;;
69087;SDS011;56190;43.562;5.036;2022-12-19T03:39:26;4.38;;;2.65;;
69087;SDS011;56190;43.562;5.036;2022-12-19T03:41:53;4.63;;;2.50;;
69087;SDS011;56190;43.562;5.036;2022-12-19T03:44:38;7.68;;;2.90;;
69087;SDS011;56190;43.562;5.036;2022-12-19T03:47:07;4.88;;;2.47;;
69087;SDS011;56190;43.562;5.036;2022-12-19T03:49:34;4.00;;;2.97;;
69087;SDS011;56190;43.562;5.036;2022-12-19T03:52:01;4.40;;;2.95;;
69087;SDS011;56190;43.562;5.036;2022-12-19T03:54:30;5.57;;;2.40;;
69087;SDS011;56190;43.562;5.036;2022-12-19T03:59:35;6.38;;;2.70;;
69087;SDS011;56190;43.562;5.036;2022-12-19T04:02:02;5.10;;;2.75;;
69087;SDS011;56190;43.562;5.036;2022-12-19T04:04:28;4.97;;;2.80;;
69087;SDS011;56190;43.562;5.036;2022-12-19T04:06:54;2.75;;;2.50;;
69087;SDS011;56190;43.562;5.036;2022-12-19T04:09:20;4.70;;;2.70;;
69087;SDS011;56190;43.562;5.036;2022-12-19T04:11:48;3.55;;;2.60;;
69087;SDS011;56190;43.562;5.036;2022-12-19T04:14:16;3.13;;;2.20;;
69087;SDS011;56190;43.562;5.036;2022-12-19T04:16:50;3.88;;;2.50;;
69087;SDS011;56190;43.562;5.036;2022-12-19T04:21:46;5.38;;;2.78;;
69087;SDS011;56190;43.562;5.036;2022-12-19T04:24:20;4.70;;;2.65;;
69087;SDS011;56190;43.562;5.036;2022-12-19T04:26:46;3.55;;;2.58;;
69087;SDS011;56190;43.562;5.036;2022-12-19T04:29:13;5.53;;;3.03;;
69087;SDS011;56190;43.562;5.036;2022-12-19T04:31:38;4.45;;;3.10;;
69087;SDS011;56190;43.562;5.036;2022-12-19T04:34:04;4.47;;;2.50;;
69087;SDS011;56190;43.562;5.036;2022-12-19T04:36:29;5.75;;;2.53;;
69087;SDS011;56190;43.562;5.036;2022-12-19T04:38:54;5.68;;;2.75;;
69087;SDS011;56190;43.562;5.036;2022-12-19T04:41:19;4.78;;;2.83;;
69087;SDS011;56190;43.562;5.036;2022-12-19T04:43:45;2.85;;;2.50;;
69087;SDS011;56190;43.562;5.036;2022-12-19T04:46:10;6.80;;;3.70;;
69087;SDS011;56190;43.562;5.036;2022-12-19T04:48:35;7.05;;;3.40;;
69087;SDS011;56190;43.562;5.036;2022-12-19T04:51:01;6.07;;;3.00;;
69087;SDS011;56190;43.562;5.036;2022-12-19T04:53:26;4.70;;;2.95;;
69087;SDS011;56190;43.562;5.036;2022-12-19T04:55:58;4.68;;;3.08;;
69087;SDS011;56190;43.562;5.036;2022-12-19T04:58:23;6.85;;;3.25;;
69087;SDS011;56190;43.562;5.036;2022-12-19T05:00:49;5.22;;;3.55;;
69087;SDS011;56190;43.562;5.036;2022-12-19T05:03:14;4.50;;;2.97;;
69087;SDS011;56190;43.562;5.036;2022-12-19T05:05:39;5.57;;;2.70;;
69087;SDS011;56190;43.562;5.036;2022-12-19T05:08:05;5.20;;;3.30;;
69087;SDS011;56190;43.562;5.036;2022-12-19T05:10:30;5.85;;;3.20;;
69087;SDS011;56190;43.562;5.036;2022-12-19T05:12:55;7.97;;;3.72;;
69087;SDS011;56190;43.562;5.036;2022-12-19T05:15:21;4.75;;;3.20;;
69087;SDS011;56190;43.562;5.036;2022-12-19T05:17:46;5.13;;;3.20;;
69087;SDS011;56190;43.562;5.036;2022-12-19T05:20:11;4.63;;;2.72;;
69087;SDS011;56190;43.562;5.036;2022-12-19T05:22:36;4.85;;;3.22;;
69087;SDS011;56190;43.562;5.036;2022-12-19T05:25:02;4.55;;;3.10;;
69087;SDS011;56190;43.562;5.036;2022-12-19T05:27:27;6.07;;;2.90;;
69087;SDS011;56190;43.562;5.036;2022-12-19T05:29:52;4.03;;;2.80;;
69087;SDS011;56190;43.562;5.036;2022-12-19T05:32:17;4.47;;;3.00;;
69087;SDS011;56190;43.562;5.036;2022-12-19T05:34:42;5.47;;;3.30;;
69087;SDS011;56190;43.562;5.036;2022-12-19T05:37:08;6.13;;;3.30;;
69087;SDS011;56190;43.562;5.036;2022-12-19T05:39:33;4.55;;;2.97;;
69087;SDS011;56190;43.562;5.036;2022-12-19T05:41:59;3.88;;;2.45;;
69087;SDS011;56190;43.562;5.036;2022-12-19T05:44:24;4.38;;;2.97;;
69087;SDS011;56190;43.562;5.036;2022-12-19T05:46:49;5.70;;;3.70;;
69087;SDS011;56190;43.562;5.036;2022-12-19T05:49:14;4.65;;;3.10;;
69087;SDS011;56190;43.562;5.036;2022-12-19T05:51:40;4.05;;;2.90;;
69087;SDS011;56190;43.562;5.036;2022-12-19T05:54:05;5.75;;;2.60;;
69087;SDS011;56190;43.562;5.036;2022-12-19T05:56:30;3.70;;;2.72;;
69087;SDS011;56190;43.562;5.036;2022-12-19T05:58:55;3.60;;;2.63;;
69087;SDS011;56190;43.562;5.036;2022-12-19T06:01:25;3.85;;;2.35;;
69087;SDS011;56190;43.562;5.036;2022-12-19T06:03:51;5.78;;;2.92;;
69087;SDS011;56190;43.562;5.036;2022-12-19T06:06:18;5.15;;;2.92;;
69087;SDS011;56190;43.562;5.036;2022-12-19T06:08:43;4.13;;;2.90;;
69087;SDS011;56190;43.562;5.036;2022-12-19T06:11:09;5.88;;;3.50;;
69087;SDS011;56190;43.562;5.036;2022-12-19T06:13:35;6.13;;;3.20;;
69087;SDS011;56190;43.562;5.036;2022-12-19T06:16:05;3.60;;;2.75;;
69087;SDS011;56190;43.562;5.036;2022-12-19T06:18:30;5.60;;;2.80;;
69087;SDS011;56190;43.562;5.036;2022-12-19T06:20:57;4.57;;;2.92;;
69087;SDS011;56190;43.562;5.036;2022-12-19T06:23:22;4.50;;;2.60;;
69087;SDS011;56190;43.562;5.036;2022-12-19T06:25:47;4.88;;;2.47;;
69087;SDS011;56190;43.562;5.036;2022-12-19T06:28:12;5.25;;;2.45;;
69087;SDS011;56190;43.562;5.036;2022-12-19T06:30:38;2.95;;;2.30;;
69087;SDS011;56190;43.562;5.036;2022-12-19T06:33:03;4.43;;;3.00;;
69087;SDS011;56190;43.562;5.036;2022-12-19T06:35:28;4.38;;;2.50;;
69087;SDS011;56190;43.562;5.036;2022-12-19T06:37:53;6.00;;;2.83;;
69087;SDS011;56190;43.562;5.036;2022-12-19T06:40:19;4.20;;;2.72;;
69087;SDS011;56190;43.562;5.036;2022-12-19T06:43:04;5.40;;;2.72;;
69087;SDS011;56190;43.562;5.036;2022-12-19T06:45:29;5.75;;;2.70;;
69087;SDS011;56190;43.562;5.036;2022-12-19T06:47:55;5.45;;;2.80;;
69087;SDS011;56190;43.562;5.036;2022-12-19T06:50:20;4.88;;;2.78;;
69087;SDS011;56190;43.562;5.036;2022-12-19T06:52:45;3.75;;;2.45;;
69087;SDS011;56190;43.562;5.036;2022-12-19T06:55:11;3.00;;;2.35;;
69087;SDS011;56190;43.562;5.036;2022-12-19T06:57:36;3.65;;;2.25;;
69087;SDS011;56190;43.562;5.036;2022-12-19T07:00:02;5.22;;;2.90;;
69087;SDS011;56190;43.562;5.036;2022-12-19T07:02:28;3.70;;;2.35;;
69087;SDS011;56190;43.562;5.036;2022-12-19T07:04:56;4.22;;;2.60;;
69087;SDS011;56190;43.562;5.036;2022-12-19T07:07:23;5.28;;;2.35;;
69087;SDS011;56190;43.562;5.036;2022-12-19T07:09:48;4.20;;;2.53;;
69087;SDS011;56190;43.562;5.036;2022-12-19T07:12:14;4.20;;;2.40;;
69087;SDS011;56190;43.562;5.036;2022-12-19T07:14:39;3.53;;;2.35;;
69087;SDS011;56190;43.562;5.036;2022-12-19T07:17:04;5.00;;;2.85;;
69087;SDS011;56190;43.562;5.036;2022-12-19T07:19:30;3.35;;;2.50;;
69087;SDS011;56190;43.562;5.036;2022-12-19T07:21:56;4.82;;;2.30;;
69087;SDS011;56190;43.562;5.036;2022-12-19T07:24:21;6.20;;;2.63;;
69087;SDS011;56190;43.562;5.036;2022-12-19T07:26:46;2.92;;;2.50;;
69087;SDS011;56190;43.562;5.036;2022-12-19T07:29:12;4.45;;;2.38;;
69087;SDS011;56190;43.562;5.036;2022-12-19T07:31:38;3.35;;;2.50;;
69087;SDS011;56190;43.562;5.036;2022-12-19T07:34:03;3.80;;;2.30;;
69087;SDS011;56190;43.562;5.036;2022-12-19T07:36:28;3.53;;;2.42;;
69087;SDS011;56190;43.562;5.036;2022-12-19T07:38:54;4.43;;;2.67;;
69087;SDS011;56190;43.562;5.036;2022-12-19T07:41:19;4.90;;;2.60;;
69087;SDS011;56190;43.562;5.036;2022-12-19T07:43:44;6.13;;;3.00;;
69087;SDS011;56190;43.562;5.036;2022-12-19T07:46:10;4.40;;;2.50;;
69087;SDS011;56190;43.562;5.036;2022-12-19T07:48:35;5.45;;;3.00;;
69087;SDS011;56190;43.562;5.036;2022-12-19T07:51:00;4.90;;;3.03;;
69087;SDS011;56190;43.562;5.036;2022-12-19T07:53:29;4.50;;;2.60;;
69087;SDS011;56190;43.562;5.036;2022-12-19T07:55:54;3.28;;;2.72;;
69087;SDS011;56190;43.562;5.036;2022-12-19T07:58:20;3.97;;;2.58;;
69087;SDS011;56190;43.562;5.036;2022-12-19T08:00:52;4.38;;;3.20;;
69087;SDS011;56190;43.562;5.036;2022-12-19T08:03:17;4.45;;;2.30;;
69087;SDS011;56190;43.562;5.036;2022-12-19T08:05:43;4.30;;;2.55;;
69087;SDS011;56190;43.562;5.036;2022-12-19T08:08:08;5.72;;;2.78;;
69087;SDS011;56190;43.562;5.036;2022-12-19T08:10:33;3.72;;;2.40;;
69087;SDS011;56190;43.562;5.036;2022-12-19T08:12:59;4.47;;;2.60;;
69087;SDS011;56190;43.562;5.036;2022-12-19T08:15:24;5.85;;;2.88;;
69087;SDS011;56190;43.562;5.036;2022-12-19T08:17:49;4.43;;;2.75;;
69087;SDS011;56190;43.562;5.036;2022-12-19T08:20:15;4.57;;;2.30;;
69087;SDS011;56190;43.562;5.036;2022-12-19T08:22:40;4.20;;;2.70;;
69087;SDS011;56190;43.562;5.036;2022-12-19T08:25:05;5.93;;;3.00;;
69087;SDS011;56190;43.562;5.036;2022-12-19T08:27:31;5.38;;;2.65;;
69087;SDS011;56190;43.562;5.036;2022-12-19T08:29:56;5.82;;;2.60;;
69087;SDS011;56190;43.562;5.036;2022-12-19T08:32:22;3.58;;;2.75;;
69087;SDS011;56190;43.562;5.036;2022-12-19T08:34:47;4.38;;;2.53;;
69087;SDS011;56190;43.562;5.036;2022-12-19T08:37:13;5.95;;;2.78;;
69087;SDS011;56190;43.562;5.036;2022-12-19T08:39:38;12.50;;;10.07;;
69087;SDS011;56190;43.562;5.036;2022-12-19T08:42:03;7.03;;;4.53;;
69087;SDS011;56190;43.562;5.036;2022-12-19T08:44:29;3.72;;;2.95;;
69087;SDS011;56190;43.562;5.036;2022-12-19T08:46:54;5.85;;;2.88;;
69087;SDS011;56190;43.562;5.036;2022-12-19T08:49:19;4.65;;;2.75;;
69087;SDS011;56190;43.562;5.036;2022-12-19T08:51:45;6.03;;;5.03;;
69087;SDS011;56190;43.562;5.036;2022-12-19T08:54:10;4.22;;;2.95;;
69087;SDS011;56190;43.562;5.036;2022-12-19T08:56:36;4.70;;;2.80;;
69087;SDS011;56190;43.562;5.036;2022-12-19T08:59:01;7.40;;;4.65;;
69087;SDS011;56190;43.562;5.036;2022-12-19T09:01:26;10.95;;;7.85;;
69087;SDS011;56190;43.562;5.036;2022-12-19T09:03:51;7.78;;;5.50;;
69087;SDS011;56190;43.562;5.036;2022-12-19T09:06:17;11.73;;;7.40;;
69087;SDS011;56190;43.562;5.036;2022-12-19T09:08:42;14.63;;;9.27;;
69087;SDS011;56190;43.562;5.036;2022-12-19T09:11:11;8.07;;;5.45;;
69087;SDS011;56190;43.562;5.036;2022-12-19T09:13:37;12.77;;;8.60;;
69087;SDS011;56190;43.562;5.036;2022-12-19T09:16:07;6.22;;;4.00;;
69087;SDS011;56190;43.562;5.036;2022-12-19T09:18:33;5.82;;;3.33;;
69087;SDS011;56190;43.562;5.036;2022-12-19T09:20:58;8.00;;;4.38;;
69087;SDS011;56190;43.562;5.036;2022-12-19T09:23:24;10.02;;;7.85;;
69087;SDS011;56190;43.562;5.036;2022-12-19T09:25:53;13.77;;;10.57;;
69087;SDS011;56190;43.562;5.036;2022-12-19T09:28:18;5.75;;;4.07;;
69087;SDS011;56190;43.562;5.036;2022-12-19T09:30:43;8.20;;;3.90;;
69087;SDS011;56190;43.562;5.036;2022-12-19T09:33:09;6.40;;;4.60;;
69087;SDS011;56190;43.562;5.036;2022-12-19T09:35:34;4.70;;;4.18;;
69087;SDS011;56190;43.562;5.036;2022-12-19T09:38:00;6.15;;;3.10;;
69087;SDS011;56190;43.562;5.036;2022-12-19T09:40:25;5.65;;;3.42;;
69087;SDS011;56190;43.562;5.036;2022-12-19T09:43:05;5.28;;;3.33;;
69087;SDS011;56190;43.562;5.036;2022-12-19T09:45:37;5.63;;;2.90;;
69087;SDS011;56190;43.562;5.036;2022-12-19T09:48:09;4.07;;;2.88;;
69087;SDS011;56190;43.562;5.036;2022-12-19T09:53:11;2.80;;;2.42;;
69087;SDS011;56190;43.562;5.036;2022-12-19T09:55:40;4.47;;;2.47;;
69087;SDS011;56190;43.562;5.036;2022-12-19T10:00:41;5.10;;;2.78;;
69087;SDS011;56190;43.562;5.036;2022-12-19T10:03:19;4.20;;;2.55;;
69087;SDS011;56190;43.562;5.036;2022-12-19T10:08:14;3.53;;;2.40;;
69087;SDS011;56190;43.562;5.036;2022-12-19T10:15:53;6.30;;;2.47;;
69087;SDS011;56190;43.562;5.036;2022-12-19T10:21:06;6.13;;;3.00;;
69087;SDS011;56190;43.562;5.036;2022-12-19T10:31:03;5.25;;;2.70;;
69087;SDS011;56190;43.562;5.036;2022-12-19T10:35:56;9.35;;;6.40;;
69087;SDS011;56190;43.562;5.036;2022-12-19T10:43:14;6.50;;;3.85;;
69087;SDS011;56190;43.562;5.036;2022-12-19T10:45:44;3.35;;;2.70;;
69087;SDS011;56190;43.562;5.036;2022-12-19T10:48:28;6.97;;;3.40;;
69087;SDS011;56190;43.562;5.036;2022-12-19T10:50:54;5.10;;;3.50;;
69087;SDS011;56190;43.562;5.036;2022-12-19T10:53:28;5.60;;;4.38;;
69087;SDS011;56190;43.562;5.036;2022-12-19T10:55:54;5.90;;;3.58;;
69087;SDS011;56190;43.562;5.036;2022-12-19T11:03:23;6.32;;;3.20;;
69087;SDS011;56190;43.562;5.036;2022-12-19T11:05:49;4.65;;;2.50;;
69087;SDS011;56190;43.562;5.036;2022-12-19T11:08:22;5.68;;;3.05;;
69087;SDS011;56190;43.562;5.036;2022-12-19T11:10:49;5.53;;;2.70;;
69087;SDS011;56190;43.562;5.036;2022-12-19T11:13:18;6.53;;;2.92;;
69087;SDS011;56190;43.562;5.036;2022-12-19T11:16:21;5.75;;;2.45;;
69087;SDS011;56190;43.562;5.036;2022-12-19T11:18:39;6.30;;;2.60;;
69087;SDS011;56190;43.562;5.036;2022-12-19T11:21:06;4.63;;;2.70;;
69087;SDS011;56190;43.562;5.036;2022-12-19T11:26:04;3.80;;;2.38;;
69087;SDS011;56190;43.562;5.036;2022-12-19T11:28:33;6.65;;;2.42;;
69087;SDS011;56190;43.562;5.036;2022-12-19T11:31:01;4.88;;;2.60;;
69087;SDS011;56190;43.562;5.036;2022-12-19T11:33:27;5.55;;;2.80;;
69087;SDS011;56190;43.562;5.036;2022-12-19T11:35:53;6.03;;;2.40;;
69087;SDS011;56190;43.562;5.036;2022-12-19T11:38:20;9.90;;;3.72;;
69087;SDS011;56190;43.562;5.036;2022-12-19T11:43:22;5.05;;;2.67;;
69087;SDS011;56190;43.562;5.036;2022-12-19T11:46:08;4.10;;;2.50;;
69087;SDS011;56190;43.562;5.036;2022-12-19T11:48:37;4.78;;;3.40;;
69087;SDS011;56190;43.562;5.036;2022-12-19T11:51:05;6.75;;;2.97;;
69087;SDS011;56190;43.562;5.036;2022-12-19T11:56:19;5.60;;;2.88;;
69087;SDS011;56190;43.562;5.036;2022-12-19T11:58:46;6.40;;;2.42;;
69087;SDS011;56190;43.562;5.036;2022-12-19T12:06:32;7.80;;;2.90;;
69087;SDS011;56190;43.562;5.036;2022-12-19T12:09:01;6.53;;;2.40;;
69087;SDS011;56190;43.562;5.036;2022-12-19T12:14:23;4.97;;;2.28;;
69087;SDS011;56190;43.562;5.036;2022-12-19T12:19:47;4.43;;;3.40;;
69087;SDS011;56190;43.562;5.036;2022-12-19T12:24:49;4.72;;;2.75;;
69087;SDS011;56190;43.562;5.036;2022-12-19T12:30:02;5.20;;;3.30;;
69087;SDS011;56190;43.562;5.036;2022-12-19T12:37:44;5.28;;;2.47;;
69087;SDS011;56190;43.562;5.036;2022-12-19T12:42:53;7.00;;;3.45;;
69087;SDS011;56190;43.562;5.036;2022-12-19T12:45:24;5.95;;;2.53;;
69087;SDS011;56190;43.562;5.036;2022-12-19T12:47:51;6.10;;;2.35;;
69087;SDS011;56190;43.562;5.036;2022-12-19T12:50:17;6.05;;;2.67;;
69087;SDS011;56190;43.562;5.036;2022-12-19T12:52:44;5.60;;;2.50;;
69087;SDS011;56190;43.562;5.036;2022-12-19T12:55:31;4.07;;;2.60;;
69087;SDS011;56190;43.562;5.036;2022-12-19T12:57:57;4.90;;;2.13;;
69087;SDS011;56190;43.562;5.036;2022-12-19T13:02:53;4.50;;;2.80;;
69087;SDS011;56190;43.562;5.036;2022-12-19T13:05:31;6.55;;;3.17;;
69087;SDS011;56190;43.562;5.036;2022-12-19T13:07:58;6.25;;;2.42;;
69087;SDS011;56190;43.562;5.036;2022-12-19T13:13:05;5.28;;;2.58;;
69087;SDS011;56190;43.562;5.036;2022-12-19T13:15:33;5.50;;;2.30;;
69087;SDS011;56190;43.562;5.036;2022-12-19T13:20:46;7.28;;;4.05;;
69087;SDS011;56190;43.562;5.036;2022-12-19T13:26:18;4.93;;;3.00;;
69087;SDS011;56190;43.562;5.036;2022-12-19T13:28:44;7.65;;;2.90;;
69087;SDS011;56190;43.562;5.036;2022-12-19T13:31:13;6.55;;;2.97;;
69087;SDS011;56190;43.562;5.036;2022-12-19T13:38:56;6.75;;;2.80;;
69087;SDS011;56190;43.562;5.036;2022-12-19T13:41:27;3.97;;;2.47;;
69087;SDS011;56190;43.562;5.036;2022-12-19T13:44:11;5.80;;;2.97;;
69087;SDS011;56190;43.562;5.036;2022-12-19T13:46:40;6.95;;;3.13;;
69087;SDS011;56190;43.562;5.036;2022-12-19T13:49:11;5.40;;;2.72;;
69087;SDS011;56190;43.562;5.036;2022-12-19T13:51:44;4.30;;;2.20;;
69087;SDS011;56190;43.562;5.036;2022-12-19T13:55:11;6.57;;;2.47;;
69087;SDS011;56190;43.562;5.036;2022-12-19T13:57:17;5.40;;;3.08;;
69087;SDS011;56190;43.562;5.036;2022-12-19T13:59:44;7.97;;;2.63;;
69087;SDS011;56190;43.562;5.036;2022-12-19T14:02:14;9.05;;;4.32;;
69087;SDS011;56190;43.562;5.036;2022-12-19T14:04:41;5.03;;;2.42;;
69087;SDS011;56190;43.562;5.036;2022-12-19T14:07:23;6.53;;;2.67;;
69087;SDS011;56190;43.562;5.036;2022-12-19T14:09:50;5.20;;;2.67;;
69087;SDS011;56190;43.562;5.036;2022-12-19T14:12:24;15.60;;;6.68;;
69087;SDS011;56190;43.562;5.036;2022-12-19T14:17:46;5.45;;;3.10;;
69087;SDS011;56190;43.562;5.036;2022-12-19T14:20:18;4.93;;;3.42;;
69087;SDS011;56190;43.562;5.036;2022-12-19T14:22:43;8.55;;;3.05;;
69087;SDS011;56190;43.562;5.036;2022-12-19T14:25:09;8.43;;;3.10;;
69087;SDS011;56190;43.562;5.036;2022-12-19T14:30:04;9.88;;;4.65;;
69087;SDS011;56190;43.562;5.036;2022-12-19T14:32:30;5.50;;;3.40;;
69087;SDS011;56190;43.562;5.036;2022-12-19T14:34:55;7.72;;;3.25;;
69087;SDS011;56190;43.562;5.036;2022-12-19T14:37:27;3.92;;;2.63;;
69087;SDS011;56190;43.562;5.036;2022-12-19T14:39:56;9.45;;;3.70;;
69087;SDS011;56190;43.562;5.036;2022-12-19T14:42:22;10.27;;;4.35;;
69087;SDS011;56190;43.562;5.036;2022-12-19T14:47:52;6.97;;;3.38;;
69087;SDS011;56190;43.562;5.036;2022-12-19T14:50:27;6.38;;;2.75;;
69087;SDS011;56190;43.562;5.036;2022-12-19T14:55:37;6.20;;;3.20;;
69087;SDS011;56190;43.562;5.036;2022-12-19T14:58:09;8.38;;;3.33;;
69087;SDS011;56190;43.562;5.036;2022-12-19T15:00:50;5.38;;;2.80;;
69087;SDS011;56190;43.562;5.036;2022-12-19T15:03:25;5.72;;;2.88;;
69087;SDS011;56190;43.562;5.036;2022-12-19T15:05:51;4.93;;;2.83;;
69087;SDS011;56190;43.562;5.036;2022-12-19T15:08:21;7.43;;;2.83;;
69087;SDS011;56190;43.562;5.036;2022-12-19T15:10:56;6.57;;;2.50;;
69087;SDS011;56190;43.562;5.036;2022-12-19T15:13:28;7.97;;;3.17;;
69087;SDS011;56190;43.562;5.036;2022-12-19T15:15:54;8.57;;;2.80;;
69087;SDS011;56190;43.562;5.036;2022-12-19T15:20:45;7.70;;;4.70;;
69087;SDS011;56190;43.562;5.036;2022-12-19T15:23:11;8.00;;;4.93;;
69087;SDS011;56190;43.562;5.036;2022-12-19T15:25:36;10.05;;;5.82;;
69087;SDS011;56190;43.562;5.036;2022-12-19T15:28:04;12.00;;;6.55;;
69087;SDS011;56190;43.562;5.036;2022-12-19T15:30:30;14.23;;;7.82;;
69087;SDS011;56190;43.562;5.036;2022-12-19T15:32:57;17.10;;;11.70;;
69087;SDS011;56190;43.562;5.036;2022-12-19T15:35:22;16.58;;;12.27;;
69087;SDS011;56190;43.562;5.036;2022-12-19T15:37:47;10.80;;;7.13;;
69087;SDS011;56190;43.562;5.036;2022-12-19T15:40:14;7.43;;;4.05;;
69087;SDS011;56190;43.562;5.036;2022-12-19T15:42:40;15.40;;;8.07;;
69087;SDS011;56190;43.562;5.036;2022-12-19T15:45:06;8.80;;;5.63;;
69087;SDS011;56190;43.562;5.036;2022-12-19T15:49:57;10.60;;;5.72;;
69087;SDS011;56190;43.562;5.036;2022-12-19T15:52:26;11.30;;;6.82;;
69087;SDS011;56190;43.562;5.036;2022-12-19T15:54:52;5.22;;;3.83;;
69087;SDS011;56190;43.562;5.036;2022-12-19T15:57:28;12.43;;;6.68;;
69087;SDS011;56190;43.562;5.036;2022-12-19T15:59:53;16.05;;;7.68;;
69087;SDS011;56190;43.562;5.036;2022-12-19T16:02:21;30.25;;;14.90;;
69087;SDS011;56190;43.562;5.036;2022-12-19T16:04:48;58.40;;;32.33;;
69087;SDS011;56190;43.562;5.036;2022-12-19T16:07:18;86.45;;;40.60;;
69087;SDS011;56190;43.562;5.036;2022-12-19T16:09:44;114.00;;;55.40;;
69087;SDS011;56190;43.562;5.036;2022-12-19T16:12:13;86.00;;;45.85;;
69087;SDS011;56190;43.562;5.036;2022-12-19T16:14:39;71.57;;;37.65;;
69087;SDS011;56190;43.562;5.036;2022-12-19T16:17:05;55.60;;;28.73;;
69087;SDS011;56190;43.562;5.036;2022-12-19T16:19:30;54.92;;;32.45;;
69087;SDS011;56190;43.562;5.036;2022-12-19T16:21:56;52.95;;;29.25;;
69087;SDS011;56190;43.562;5.036;2022-12-19T16:24:21;49.85;;;28.63;;
69087;SDS011;56190;43.562;5.036;2022-12-19T16:26:51;49.83;;;29.10;;
69087;SDS011;56190;43.562;5.036;2022-12-19T16:29:21;26.35;;;15.18;;
69087;SDS011;56190;43.562;5.036;2022-12-19T16:31:47;20.02;;;11.52;;
69087;SDS011;56190;43.562;5.036;2022-12-19T16:34:16;17.23;;;10.23;;
69087;SDS011;56190;43.562;5.036;2022-12-19T16:36:42;16.95;;;9.88;;
69087;SDS011;56190;43.562;5.036;2022-12-19T16:39:07;17.88;;;9.73;;
69087;SDS011;56190;43.562;5.036;2022-12-19T16:41:33;11.73;;;7.28;;
69087;SDS011;56190;43.562;5.036;2022-12-19T16:43:58;14.95;;;8.52;;
69087;SDS011;56190;43.562;5.036;2022-12-19T16:46:24;11.40;;;7.68;;
69087;SDS011;56190;43.562;5.036;2022-12-19T16:48:57;13.48;;;8.50;;
69087;SDS011;56190;43.562;5.036;2022-12-19T16:51:23;11.32;;;6.75;;
69087;SDS011;56190;43.562;5.036;2022-12-19T16:53:50;11.02;;;6.05;;